Time;durP1;ratioP1;P1;durP2;ratioP2;P2;SDS_P1;SDS_P2;PMS_P1;PMS_P2;Temp;Humidity;BMP_temperature;BMP_pressure;BME280_temperature;BME280_humidity;BME280_pressure;Samples;Min_cycle;Max_cycle;Signal;HPM_P1;HPM_P2
2023/05/03 00:02:20;;;;;;;17.65;6.70;;;;;;;;;;10562838;28;20059;-88
2023/05/03 00:07:30;;;;;;;13.98;6.25;;;;;;;;;;10573446;27;20054;-86
2023/05/03 00:12:39;;;;;;;14.60;6.35;;;;;;;;;;10570149;27;20126;-86
2023/05/03 00:17:48;;;;;;;15.57;5.75;;;;;;;;;;10567422;27;20035;-86
2023/05/03 00:23:05;;;;;;;14.88;6.65;;;;;;;;;;10567039;27;20043;-86
2023/05/03 00:28:09;;;;;;;17.98;7.32;;;;;;;;;;10545815;27;20061;-86
2023/05/03 00:33:18;;;;;;;17.88;7.03;;;;;;;;;;10545243;27;20497;-86
2023/05/03 00:38:31;;;;;;;19.08;7.57;;;;;;;;;;10562305;27;20070;-87
2023/05/03 00:44:01;;;;;;;17.05;7.18;;;;;;;;;;10546701;28;20049;-87
2023/05/03 00:49:07;;;;;;;24.10;7.75;;;;;;;;;;10563815;27;20040;-89
2023/05/03 00:54:18;;;;;;;19.65;8.15;;;;;;;;;;10566138;27;20059;-87
2023/05/03 00:59:31;;;;;;;19.75;8.25;;;;;;;;;;10570108;28;20196;-89
2023/05/03 01:04:37;;;;;;;18.08;7.85;;;;;;;;;;10588926;27;20105;-87
2023/05/03 01:10:00;;;;;;;23.65;8.63;;;;;;;;;;10567732;28;20433;-87
2023/05/03 01:15:17;;;;;;;24.05;9.73;;;;;;;;;;10546512;28;20043;-84
2023/05/03 01:20:29;;;;;;;22.10;8.68;;;;;;;;;;10578992;28;20073;-89
2023/05/03 01:25:41;;;;;;;20.67;8.15;;;;;;;;;;10567929;28;20048;-86
2023/05/03 01:30:46;;;;;;;19.35;7.63;;;;;;;;;;10547061;28;20492;-86
2023/05/03 01:35:56;;;;;;;21.63;8.60;;;;;;;;;;10541319;28;20127;-86
2023/05/03 01:41:07;;;;;;;22.45;8.90;;;;;;;;;;10569402;27;20458;-85
2023/05/03 01:46:13;;;;;;;19.88;8.45;;;;;;;;;;10564555;27;20043;-85
2023/05/03 01:51:18;;;;;;;19.67;8.27;;;;;;;;;;10570073;28;20101;-86
2023/05/03 01:56:27;;;;;;;23.20;9.10;;;;;;;;;;10555426;27;20123;-86
2023/05/03 02:01:38;;;;;;;24.00;9.35;;;;;;;;;;10566639;28;20051;-86
2023/05/03 02:06:44;;;;;;;28.52;11.07;;;;;;;;;;10565104;27;20418;-86
2023/05/03 02:11:53;;;;;;;27.60;11.20;;;;;;;;;;10548331;28;20155;-86
2023/05/03 02:17:01;;;;;;;25.17;10.13;;;;;;;;;;10555847;27;20035;-86
2023/05/03 02:22:11;;;;;;;23.65;9.88;;;;;;;;;;10573603;27;20104;-85
2023/05/03 02:27:20;;;;;;;19.17;8.32;;;;;;;;;;10552981;28;20154;-85
2023/05/03 02:32:28;;;;;;;16.70;7.53;;;;;;;;;;10564727;28;20416;-85
2023/05/03 02:37:33;;;;;;;18.95;8.43;;;;;;;;;;10566755;27;20168;-86
2023/05/03 02:42:45;;;;;;;21.92;10.02;;;;;;;;;;10574305;27;20040;-86
2023/05/03 02:47:51;;;;;;;20.75;8.52;;;;;;;;;;10574259;27;20046;-83
2023/05/03 02:53:00;;;;;;;22.95;9.43;;;;;;;;;;10568159;27;20055;-84
2023/05/03 02:58:09;;;;;;;19.70;8.00;;;;;;;;;;10571729;27;20043;-85
2023/05/03 03:08:34;;;;;;;19.83;8.70;;;;;;;;;;10565844;27;20050;-85
2023/05/03 03:13:41;;;;;;;24.15;8.30;;;;;;;;;;10561785;27;20138;-82
2023/05/03 03:19:02;;;;;;;17.83;7.43;;;;;;;;;;10565101;28;20101;-84
2023/05/03 03:24:06;;;;;;;13.75;6.70;;;;;;;;;;10530119;27;20074;-78
2023/05/03 03:29:12;;;;;;;16.85;7.38;;;;;;;;;;10548942;28;20540;-81
2023/05/03 03:34:19;;;;;;;19.50;7.95;;;;;;;;;;10546081;27;20530;-80
2023/05/03 03:39:27;;;;;;;14.02;6.35;;;;;;;;;;10564233;27;20131;-80
2023/05/03 03:44:41;;;;;;;17.33;7.78;;;;;;;;;;10543019;27;20047;-79
2023/05/03 03:49:50;;;;;;;17.33;6.90;;;;;;;;;;10560151;28;20502;-79
2023/05/03 03:54:58;;;;;;;20.42;8.10;;;;;;;;;;10563179;28;20113;-79
2023/05/03 04:00:09;;;;;;;23.60;8.75;;;;;;;;;;10544334;28;20512;-80
2023/05/03 04:05:13;;;;;;;30.05;9.30;;;;;;;;;;10577845;27;20506;-79
2023/05/03 04:10:16;;;;;;;;;;;;;;;;;;10561807;28;20745;-79
2023/05/03 04:15:23;;;;;;;29.55;8.18;;;;;;;;;;10558413;28;20409;-80
2023/05/03 04:20:26;;;;;;;29.58;8.93;;;;;;;;;;10560627;28;21537;-80
2023/05/03 04:25:32;;;;;;;29.10;8.30;;;;;;;;;;10559617;28;20035;-80
2023/05/03 04:30:43;;;;;;;26.80;8.18;;;;;;;;;;10560647;27;20050;-80
2023/05/03 04:35:51;;;;;;;52.03;8.88;;;;;;;;;;10563955;27;20468;-80
2023/05/03 04:40:55;;;;;;;32.25;9.18;;;;;;;;;;10563851;28;20126;-79
2023/05/03 04:46:09;;;;;;;25.77;7.72;;;;;;;;;;10542452;28;20071;-79
2023/05/03 04:51:19;;;;;;;29.13;7.45;;;;;;;;;;10557624;27;20070;-80
2023/05/03 04:56:28;;;;;;;31.80;7.95;;;;;;;;;;10564798;27;20043;-79
2023/05/03 05:01:35;;;;;;;32.83;8.18;;;;;;;;;;10556032;28;20146;-80
2023/05/03 05:06:40;;;;;;;26.98;8.88;;;;;;;;;;10559165;28;20043;-79
2023/05/03 05:11:45;;;;;;;32.05;8.45;;;;;;;;;;10538015;28;20543;-79
2023/05/03 05:16:55;;;;;;;41.40;7.57;;;;;;;;;;10557110;28;20035;-80
2023/05/03 05:22:11;;;;;;;30.17;7.68;;;;;;;;;;10555251;28;20126;-82
2023/05/03 05:27:21;;;;;;;24.98;6.82;;;;;;;;;;10569179;27;20052;-82
2023/05/03 05:32:30;;;;;;;26.63;8.57;;;;;;;;;;10562657;27;20669;-80
2023/05/03 05:37:34;;;;;;;27.38;7.38;;;;;;;;;;10541217;28;20113;-80
2023/05/03 05:42:38;;;;;;;42.05;9.18;;;;;;;;;;10560977;27;20130;-80
2023/05/03 05:47:45;;;;;;;28.23;8.55;;;;;;;;;;10555428;28;20040;-84
2023/05/03 05:52:53;;;;;;;29.60;8.95;;;;;;;;;;10550710;28;20062;-84
2023/05/03 05:58:04;;;;;;;28.02;8.48;;;;;;;;;;10550045;28;20044;-84
2023/05/03 06:03:19;;;;;;;27.25;8.70;;;;;;;;;;10537030;28;20054;-84
2023/05/03 06:13:50;;;;;;;27.95;8.77;;;;;;;;;;10556530;28;20067;-85
2023/05/03 06:19:13;;;;;;;29.38;9.00;;;;;;;;;;10561522;28;20044;-84
2023/05/03 06:24:31;;;;;;;26.25;9.23;;;;;;;;;;10570858;27;20051;-84
2023/05/03 06:29:35;;;;;;;28.25;8.63;;;;;;;;;;10551119;27;20099;-83
2023/05/03 06:34:43;;;;;;;28.70;8.60;;;;;;;;;;10559233;27;20055;-85
2023/05/03 06:40:04;;;;;;;20.35;6.72;;;;;;;;;;10558907;27;20377;-83
2023/05/03 06:45:10;;;;;;;20.15;7.45;;;;;;;;;;10519200;27;20192;-83
2023/05/03 06:50:23;;;;;;;23.45;7.78;;;;;;;;;;10556550;27;20051;-84
2023/05/03 06:55:31;;;;;;;20.35;7.95;;;;;;;;;;10562878;27;20589;-83
2023/05/03 07:00:37;;;;;;;21.95;8.10;;;;;;;;;;10566934;28;20109;-83
2023/05/03 07:05:49;;;;;;;24.35;7.75;;;;;;;;;;10539961;28;20405;-83
2023/05/03 07:11:00;;;;;;;19.77;7.57;;;;;;;;;;10522159;28;20082;-83
2023/05/03 07:16:09;;;;;;;26.63;10.30;;;;;;;;;;10560706;27;20044;-83
2023/05/03 07:21:24;;;;;;;28.63;9.30;;;;;;;;;;10561022;27;20080;-84
2023/05/03 07:26:30;;;;;;;29.08;8.95;;;;;;;;;;10566983;27;20036;-84
2023/05/03 07:31:35;;;;;;;24.55;7.95;;;;;;;;;;10564910;28;20496;-84
2023/05/03 07:36:46;;;;;;;24.65;7.20;;;;;;;;;;10563625;27;20075;-84
2023/05/03 07:41:50;;;;;;;26.48;8.27;;;;;;;;;;10558704;28;20048;-82
2023/05/03 07:47:03;;;;;;;24.27;8.85;;;;;;;;;;10577862;27;20052;-83
2023/05/03 07:52:19;;;;;;;26.02;8.82;;;;;;;;;;10570263;27;20425;-84
2023/05/03 07:57:35;;;;;;;24.40;10.27;;;;;;;;;;10565985;27;20138;-83
2023/05/03 08:02:39;;;;;;;25.00;10.00;;;;;;;;;;10570445;27;20036;-83
2023/05/03 08:07:58;;;;;;;24.75;9.77;;;;;;;;;;10570397;27;20032;-83
2023/05/03 08:13:03;;;;;;;22.38;9.07;;;;;;;;;;10545379;27;20040;-82
2023/05/03 08:18:23;;;;;;;26.10;10.13;;;;;;;;;;10539802;28;20043;-83
2023/05/03 08:23:33;;;;;;;26.60;9.15;;;;;;;;;;10559698;28;20413;-83
2023/05/03 08:28:39;;;;;;;25.75;9.43;;;;;;;;;;10558751;28;20046;-83
2023/05/03 08:33:44;;;;;;;26.95;9.55;;;;;;;;;;10560067;27;20177;-83
2023/05/03 08:38:53;;;;;;;27.05;10.18;;;;;;;;;;10541703;28;20053;-83
2023/05/03 08:44:00;;;;;;;27.67;10.85;;;;;;;;;;10570198;27;20105;-85
2023/05/03 08:49:09;;;;;;;25.42;10.35;;;;;;;;;;10552174;27;20564;-84
2023/05/03 08:54:26;;;;;;;21.90;8.70;;;;;;;;;;10568211;27;20487;-84
2023/05/03 08:59:46;;;;;;;27.23;9.43;;;;;;;;;;10550006;28;20063;-84
2023/05/03 09:04:54;;;;;;;27.42;10.70;;;;;;;;;;10564525;27;20047;-83
2023/05/03 09:10:01;;;;;;;31.10;11.20;;;;;;;;;;10544045;27;20074;-83
2023/05/03 09:15:08;;;;;;;31.88;11.10;;;;;;;;;;10539084;28;20149;-83
2023/05/03 09:20:16;;;;;;;29.00;9.77;;;;;;;;;;10570956;28;20036;-84
2023/05/03 09:25:23;;;;;;;25.50;10.13;;;;;;;;;;10543131;28;20161;-83
2023/05/03 09:30:36;;;;;;;34.38;12.77;;;;;;;;;;10577584;27;20456;-83
2023/05/03 09:35:55;;;;;;;28.67;10.25;;;;;;;;;;10566147;28;20048;-84
2023/05/03 09:41:01;;;;;;;26.92;10.18;;;;;;;;;;10569721;28;20476;-85
2023/05/03 09:46:09;;;;;;;23.75;10.73;;;;;;;;;;10562034;28;20377;-84
2023/05/03 09:51:36;;;;;;;26.73;10.45;;;;;;;;;;10545754;28;20120;-84
2023/05/03 09:56:59;;;;;;;27.60;11.77;;;;;;;;;;10551952;27;20035;-84
2023/05/03 10:02:27;;;;;;;28.45;12.27;;;;;;;;;;10571135;27;20493;-84
2023/05/03 10:07:55;;;;;;;26.80;12.13;;;;;;;;;;10572971;27;20046;-83
2023/05/03 10:13:18;;;;;;;23.67;11.82;;;;;;;;;;10584132;27;20054;-84
2023/05/03 10:18:54;;;;;;;23.83;12.40;;;;;;;;;;10558265;27;20472;-85
2023/05/03 10:24:09;;;;;;;24.00;13.45;;;;;;;;;;10559334;28;20097;-87
2023/05/03 10:29:31;;;;;;;24.48;13.27;;;;;;;;;;10556364;28;20047;-87
2023/05/03 10:34:38;;;;;;;23.70;14.75;;;;;;;;;;10564342;28;20096;-86
2023/05/03 10:45:06;;;;;;;21.80;14.32;;;;;;;;;;10585625;28;20087;-86
2023/05/03 10:50:26;;;;;;;18.25;14.18;;;;;;;;;;10576526;27;20052;-86
2023/05/03 10:55:29;;;;;;;19.67;14.32;;;;;;;;;;10556095;28;20150;-86
2023/05/03 11:00:34;;;;;;;19.23;14.07;;;;;;;;;;10554885;28;20044;-87
2023/05/03 11:05:38;;;;;;;16.63;13.35;;;;;;;;;;10557993;28;20157;-86
2023/05/03 11:10:41;;;;;;;20.40;14.55;;;;;;;;;;10560765;28;20039;-87
2023/05/03 11:15:45;;;;;;;18.58;13.30;;;;;;;;;;10556701;28;20120;-85
2023/05/03 11:20:52;;;;;;;21.10;14.13;;;;;;;;;;10555433;28;20511;-86
2023/05/03 11:25:56;;;;;;;19.25;14.80;;;;;;;;;;10554142;28;20040;-86
2023/05/03 11:31:00;;;;;;;18.60;12.88;;;;;;;;;;10529180;28;20560;-85
2023/05/03 11:36:06;;;;;;;18.30;13.35;;;;;;;;;;10527934;28;20054;-85
2023/05/03 11:41:13;;;;;;;18.77;13.63;;;;;;;;;;10525730;28;20077;-86
2023/05/03 11:46:17;;;;;;;16.90;13.90;;;;;;;;;;10533198;28;20605;-85
2023/05/03 11:51:23;;;;;;;18.90;12.80;;;;;;;;;;10521243;28;20048;-85
2023/05/03 11:56:26;;;;;;;18.13;12.73;;;;;;;;;;10531376;28;20032;-84
2023/05/03 12:01:29;;;;;;;16.17;12.43;;;;;;;;;;10520157;28;20043;-85
2023/05/03 12:06:34;;;;;;;15.52;12.15;;;;;;;;;;10525300;28;20194;-85
2023/05/03 12:11:40;;;;;;;16.13;11.10;;;;;;;;;;10528381;28;20436;-85
2023/05/03 12:16:47;;;;;;;14.57;10.85;;;;;;;;;;10527206;28;20430;-85
2023/05/03 12:21:53;;;;;;;13.15;10.07;;;;;;;;;;10524804;28;20043;-85
2023/05/03 12:27:17;;;;;;;13.98;9.98;;;;;;;;;;10521336;28;20719;-85
2023/05/03 12:32:21;;;;;;;15.25;8.88;;;;;;;;;;10524783;28;20058;-85
2023/05/03 12:37:26;;;;;;;12.23;8.63;;;;;;;;;;10527014;28;20085;-85
2023/05/03 12:42:29;;;;;;;10.82;7.10;;;;;;;;;;10530974;28;20059;-84
2023/05/03 12:47:36;;;;;;;11.10;7.50;;;;;;;;;;10523246;28;20130;-85
2023/05/03 12:52:41;;;;;;;11.57;7.72;;;;;;;;;;10522459;28;20040;-85
2023/05/03 12:57:47;;;;;;;12.57;7.95;;;;;;;;;;10523473;28;20043;-85
2023/05/03 13:03:11;;;;;;;10.38;7.40;;;;;;;;;;10521795;28;20150;-85
2023/05/03 13:08:25;;;;;;;12.05;8.38;;;;;;;;;;10525704;28;20044;-85
2023/05/03 13:13:35;;;;;;;10.90;7.45;;;;;;;;;;10520721;28;20124;-85
2023/05/03 13:18:38;;;;;;;12.40;8.07;;;;;;;;;;10522281;28;20066;-84
2023/05/03 13:23:42;;;;;;;10.23;7.13;;;;;;;;;;10517425;28;20525;-84
2023/05/03 13:28:46;;;;;;;11.52;7.38;;;;;;;;;;10522459;28;20077;-85
2023/05/03 13:33:52;;;;;;;11.82;7.63;;;;;;;;;;10522968;28;20044;-83
2023/05/03 13:38:57;;;;;;;12.38;7.78;;;;;;;;;;10518929;28;20047;-84
2023/05/03 13:44:00;;;;;;;15.13;8.88;;;;;;;;;;10523561;28;20116;-85
2023/05/03 13:49:04;;;;;;;13.85;8.68;;;;;;;;;;10518830;28;20040;-84
2023/05/03 13:54:08;;;;;;;15.27;8.60;;;;;;;;;;10518184;28;20052;-84
2023/05/03 13:59:12;;;;;;;8.98;6.18;;;;;;;;;;10517132;28;20047;-84
2023/05/03 14:04:15;;;;;;;8.88;5.40;;;;;;;;;;10511791;28;20044;-84
2023/05/03 14:09:20;;;;;;;11.82;6.57;;;;;;;;;;10512570;28;20189;-84
2023/05/03 14:14:22;;;;;;;9.88;6.10;;;;;;;;;;10520144;28;20051;-84
2023/05/03 14:19:25;;;;;;;7.00;4.40;;;;;;;;;;10519741;28;20077;-85
2023/05/03 14:24:29;;;;;;;7.20;4.68;;;;;;;;;;10527575;28;20064;-85
2023/05/03 14:29:33;;;;;;;6.82;3.97;;;;;;;;;;10528615;28;20064;-84
2023/05/03 14:34:36;;;;;;;3.65;2.70;;;;;;;;;;10523667;28;21112;-85
2023/05/03 14:39:40;;;;;;;5.40;3.00;;;;;;;;;;10524665;28;20040;-84
2023/05/03 14:44:43;;;;;;;6.07;3.90;;;;;;;;;;10525314;28;20040;-84
2023/05/03 14:49:46;;;;;;;;;;;;;;;;;;10513743;28;20098;-85
2023/05/03 14:54:50;;;;;;;9.00;3.90;;;;;;;;;;10522450;28;20097;-84
2023/05/03 14:59:55;;;;;;;5.25;3.63;;;;;;;;;;10524670;28;20429;-85
2023/05/03 15:04:57;;;;;;;9.32;3.90;;;;;;;;;;10532358;28;20044;-85
2023/05/03 15:10:02;;;;;;;5.55;3.53;;;;;;;;;;10526011;28;20040;-85
2023/05/03 15:15:07;;;;;;;7.32;4.18;;;;;;;;;;10528938;28;20382;-83
2023/05/03 15:20:12;;;;;;;9.98;5.07;;;;;;;;;;10531099;28;20403;-84
2023/05/03 15:25:16;;;;;;;5.93;3.97;;;;;;;;;;10526281;28;20096;-84
2023/05/03 15:30:19;;;;;;;7.28;4.47;;;;;;;;;;10526333;28;20051;-84
2023/05/03 15:35:22;;;;;;;8.52;4.05;;;;;;;;;;10526439;28;20036;-84
2023/05/03 15:40:26;;;;;;;7.50;4.60;;;;;;;;;;10527199;28;20044;-84
2023/05/03 15:45:30;;;;;;;6.57;3.95;;;;;;;;;;10525995;28;20040;-85
2023/05/03 15:50:33;;;;;;;6.00;4.07;;;;;;;;;;10530427;28;20523;-84
2023/05/03 15:55:37;;;;;;;8.30;4.72;;;;;;;;;;10523190;28;20055;-84
2023/05/03 16:00:41;;;;;;;6.85;4.80;;;;;;;;;;10524398;28;20097;-83
2023/05/03 16:05:45;;;;;;;7.07;4.28;;;;;;;;;;10526613;28;20070;-84
2023/05/03 16:10:50;;;;;;;8.50;5.15;;;;;;;;;;10529120;28;20040;-84
2023/05/03 16:15:55;;;;;;;7.40;4.70;;;;;;;;;;10531602;28;20043;-84
2023/05/03 16:20:57;;;;;;;9.13;4.80;;;;;;;;;;10520969;28;20070;-84
2023/05/03 16:26:11;;;;;;;8.27;4.93;;;;;;;;;;10524245;28;20047;-83
2023/05/03 16:31:15;;;;;;;8.65;4.88;;;;;;;;;;10527581;28;20047;-84
2023/05/03 16:36:19;;;;;;;9.07;4.38;;;;;;;;;;10527851;28;20058;-84
2023/05/03 16:41:24;;;;;;;7.07;4.70;;;;;;;;;;10524783;28;20143;-84
2023/05/03 16:46:26;;;;;;;6.32;4.15;;;;;;;;;;10523288;28;20484;-83
2023/05/03 16:51:30;;;;;;;9.10;4.93;;;;;;;;;;10524422;28;20074;-84
2023/05/03 16:56:34;;;;;;;5.93;4.00;;;;;;;;;;10518087;28;20037;-83
2023/05/03 17:01:37;;;;;;;9.43;4.40;;;;;;;;;;10524267;28;20056;-83
2023/05/03 17:06:40;;;;;;;9.57;4.63;;;;;;;;;;10524188;28;20040;-83
2023/05/03 17:11:45;;;;;;;8.70;4.70;;;;;;;;;;10524435;28;20040;-84
2023/05/03 17:16:47;;;;;;;8.30;4.38;;;;;;;;;;10522891;28;20678;-84
2023/05/03 17:21:50;;;;;;;9.38;4.72;;;;;;;;;;10523816;28;20040;-85
2023/05/03 17:26:55;;;;;;;6.55;4.07;;;;;;;;;;10514378;28;20267;-84
2023/05/03 17:31:58;;;;;;;6.75;3.90;;;;;;;;;;10531122;28;20048;-84
2023/05/03 17:37:01;;;;;;;9.32;4.88;;;;;;;;;;10519007;28;20067;-83
2023/05/03 17:42:06;;;;;;;6.63;4.17;;;;;;;;;;10512502;28;20073;-85
2023/05/03 17:47:10;;;;;;;9.15;4.38;;;;;;;;;;10518626;28;20040;-84
2023/05/03 17:52:12;;;;;;;7.30;4.37;;;;;;;;;;10521721;28;20048;-86
2023/05/03 17:57:17;;;;;;;8.20;4.50;;;;;;;;;;10518461;28;20330;-85
2023/05/03 18:02:20;;;;;;;5.72;3.60;;;;;;;;;;10522635;28;20244;-84
2023/05/03 18:07:23;;;;;;;6.10;3.90;;;;;;;;;;10527196;28;20044;-84
2023/05/03 18:12:27;;;;;;;6.53;3.70;;;;;;;;;;10516722;28;20094;-84
2023/05/03 18:17:31;;;;;;;7.45;3.90;;;;;;;;;;10518795;28;20752;-84
2023/05/03 18:22:34;;;;;;;6.07;3.40;;;;;;;;;;10520001;28;20055;-84
2023/05/03 18:27:39;;;;;;;7.25;4.00;;;;;;;;;;10525840;28;20067;-84
2023/05/03 18:32:42;;;;;;;5.57;3.47;;;;;;;;;;10516131;28;20050;-84
2023/05/03 18:37:45;;;;;;;10.25;4.28;;;;;;;;;;10521621;28;20560;-84
2023/05/03 18:42:49;;;;;;;7.57;3.60;;;;;;;;;;10526675;28;20063;-84
2023/05/03 18:47:52;;;;;;;7.53;3.90;;;;;;;;;;10533950;28;20044;-86
2023/05/03 18:52:55;;;;;;;9.43;4.60;;;;;;;;;;10526781;28;20053;-85
2023/05/03 18:57:59;;;;;;;8.57;4.57;;;;;;;;;;10531308;28;20187;-85
2023/05/03 19:03:02;;;;;;;11.82;5.18;;;;;;;;;;10532480;28;20055;-84
2023/05/03 19:08:05;;;;;;;11.87;5.57;;;;;;;;;;10536018;28;20052;-83
2023/05/03 19:13:10;;;;;;;9.43;4.97;;;;;;;;;;10524733;28;20055;-84
2023/05/03 19:18:14;;;;;;;10.07;5.38;;;;;;;;;;10542627;28;20435;-84
2023/05/03 20:08:47;;;;;;;16.42;7.80;;;;;;;;;;11582781;22;20472;-86
2023/05/03 20:13:50;;;;;;;14.98;7.38;;;;;;;;;;10353660;28;20042;-85
2023/05/03 20:18:53;;;;;;;18.85;7.30;;;;;;;;;;10355862;28;20152;-84
2023/05/03 20:23:57;;;;;;;15.65;7.38;;;;;;;;;;10348578;28;20621;-86
2023/05/03 20:28:59;;;;;;;;;;;;;;;;;;10350601;28;20107;-84
2023/05/03 20:34:02;;;;;;;17.83;7.65;;;;;;;;;;10354390;28;19930;-84
2023/05/03 20:39:07;;;;;;;16.52;7.72;;;;;;;;;;10345216;28;20045;-84
2023/05/03 20:44:10;;;;;;;19.30;7.95;;;;;;;;;;10349240;28;20048;-85
2023/05/03 20:49:12;;;;;;;18.55;7.72;;;;;;;;;;10344544;28;20058;-84
2023/05/03 20:54:16;;;;;;;17.83;8.32;;;;;;;;;;10353139;28;20046;-84
2023/05/03 20:59:18;;;;;;;;;;;;;;;;;;10350776;28;20049;-84
2023/05/03 21:04:21;;;;;;;16.80;7.85;;;;;;;;;;10350298;28;19968;-85
2023/05/03 21:09:25;;;;;;;17.95;7.97;;;;;;;;;;10350760;28;20045;-85
2023/05/03 21:14:28;;;;;;;15.95;7.55;;;;;;;;;;10340453;28;20097;-85
2023/05/03 21:19:31;;;;;;;19.80;7.53;;;;;;;;;;10353672;28;20100;-85
2023/05/03 21:24:35;;;;;;;13.45;6.70;;;;;;;;;;10347153;28;20052;-85
2023/05/03 21:29:38;;;;;;;18.23;7.47;;;;;;;;;;10346500;28;20089;-86
2023/05/03 21:34:40;;;;;;;14.38;7.18;;;;;;;;;;10345780;28;20076;-85
2023/05/03 21:39:45;;;;;;;21.27;8.00;;;;;;;;;;10339924;28;20050;-84
2023/05/03 21:45:02;;;;;;;15.48;7.03;;;;;;;;;;10343266;28;20057;-84
2023/05/03 21:50:06;;;;;;;16.33;7.05;;;;;;;;;;10346306;28;20337;-85
2023/05/03 21:55:11;;;;;;;15.50;7.45;;;;;;;;;;10345664;28;20061;-85
2023/05/03 22:00:18;;;;;;;15.70;6.85;;;;;;;;;;10349337;28;20069;-86
2023/05/03 22:05:21;;;;;;;16.75;7.40;;;;;;;;;;10346395;28;20053;-85
2023/05/03 22:10:25;;;;;;;15.02;6.60;;;;;;;;;;10352133;28;20120;-84
2023/05/03 22:15:30;;;;;;;18.40;7.28;;;;;;;;;;10347737;28;20132;-84
2023/05/03 22:20:33;;;;;;;18.05;6.90;;;;;;;;;;10346757;28;20053;-84
2023/05/03 22:25:36;;;;;;;24.25;8.40;;;;;;;;;;10352668;28;20127;-84
2023/05/03 22:30:39;;;;;;;18.23;7.63;;;;;;;;;;10354755;28;20573;-85
2023/05/03 22:35:42;;;;;;;17.88;8.65;;;;;;;;;;10348469;28;20045;-85
2023/05/03 22:40:46;;;;;;;17.20;7.75;;;;;;;;;;10345889;28;20041;-85
2023/05/03 22:45:48;;;;;;;20.27;8.20;;;;;;;;;;10347180;28;20060;-85
2023/05/03 22:50:51;;;;;;;17.83;7.63;;;;;;;;;;10347160;28;20065;-85
2023/05/03 22:55:59;;;;;;;17.40;7.63;;;;;;;;;;10340984;28;20125;-84
2023/05/03 23:01:02;;;;;;;12.23;5.60;;;;;;;;;;10354957;28;20061;-85
2023/05/03 23:06:05;;;;;;;20.45;7.78;;;;;;;;;;10344081;28;20046;-85
2023/05/03 23:11:09;;;;;;;17.88;7.50;;;;;;;;;;10352519;28;20030;-85
2023/05/03 23:16:12;;;;;;;21.02;8.10;;;;;;;;;;10347825;28;20048;-86
2023/05/03 23:21:14;;;;;;;20.92;8.73;;;;;;;;;;10340207;28;20400;-85
2023/05/03 23:26:18;;;;;;;20.33;8.68;;;;;;;;;;10355094;28;20558;-85
2023/05/03 23:31:21;;;;;;;19.58;8.25;;;;;;;;;;10356995;28;20153;-85
2023/05/03 23:36:24;;;;;;;20.55;8.50;;;;;;;;;;10353493;28;20104;-85
2023/05/03 23:41:28;;;;;;;16.45;8.30;;;;;;;;;;10345926;28;20492;-85
2023/05/03 23:46:32;;;;;;;20.83;7.70;;;;;;;;;;10346743;28;20038;-84
2023/05/03 23:51:35;;;;;;;23.02;8.73;;;;;;;;;;10350908;28;20042;-84
2023/05/03 23:56:39;;;;;;;20.15;8.90;;;;;;;;;;10357692;28;20038;-84
